Merriam Woods Village, Missouri
Current Conditions -  °F | °C
As of 8:35 AM on Saturday 25 Oct 2014 (Local Time) from KFWB Reporting Station
Clear Clear  
Wind Chill: 63°   Ceiling: Unl
Heat Index: 63°   Visibility: 10mi
Dew Point: 59°   Wind: 6mph
Humidity: 88%   Direction: 260°W
Pressure: 30.11"   Gusts: NA
Location:  36.7156°N, 93.1751°W
Report Text: KFWB 251335Z AUTO 26005KT 10SM CLR 17/15 A3011 RMK AO2
Loading
Personal Weather Stations






























Interactive Weather Map
Tropical Storm Tracking
New forecast layout! Learn more

10-Day Weather Forecast

Advertisements
Track Severe Weather on mobile